createdAt,value
2018-05-11T00:01:26.456Z,12.93
2018-05-11T00:03:52.380Z,12.88
2018-05-11T00:06:18.303Z,12.88
2018-05-11T00:08:44.249Z,12.90
2018-05-11T00:11:10.147Z,12.99
2018-05-11T00:13:36.090Z,13.00
2018-05-11T00:16:01.985Z,13.02
2018-05-11T00:18:27.926Z,13.01
2018-05-11T00:20:53.840Z,13.03
2018-05-11T00:23:19.841Z,13.07
2018-05-11T00:25:45.699Z,13.02
2018-05-11T00:28:11.655Z,13.03
2018-05-11T00:30:37.585Z,13.06
2018-05-11T00:33:03.511Z,13.12
2018-05-11T00:35:29.497Z,13.11
2018-05-11T00:37:55.382Z,13.11
2018-05-11T00:40:21.323Z,13.17
2018-05-11T00:42:47.261Z,13.10
2018-05-11T00:45:13.250Z,13.06
2018-05-11T00:47:39.177Z,13.14
2018-05-11T00:50:05.119Z,13.08
2018-05-11T00:52:31.036Z,13.07
2018-05-11T00:54:57.022Z,13.04
2018-05-11T00:57:22.952Z,13.05
2018-05-11T00:59:48.904Z,13.02
2018-05-11T01:02:14.848Z,13.07
2018-05-11T01:04:40.764Z,13.01
2018-05-11T01:07:06.701Z,12.96
2018-05-11T01:09:32.640Z,13.03
2018-05-11T01:11:58.558Z,12.93
2018-05-11T01:14:24.468Z,12.98
2018-05-11T01:16:50.471Z,12.92
2018-05-11T01:19:16.348Z,12.94
2018-05-11T01:21:42.306Z,12.91
2018-05-11T01:24:08.197Z,12.94
2018-05-11T01:26:34.133Z,12.95
2018-05-11T01:29:00.045Z,12.98
2018-05-11T01:31:25.955Z,13.03
2018-05-11T01:33:51.893Z,12.99
2018-05-11T01:36:17.814Z,12.96
2018-05-11T01:38:43.735Z,13.00
2018-05-11T01:41:09.671Z,12.90
2018-05-11T01:43:35.613Z,12.90
2018-05-11T01:46:01.511Z,12.76
2018-05-11T01:48:27.425Z,12.89
2018-05-11T01:50:53.353Z,12.87
2018-05-11T01:53:19.265Z,12.80
2018-05-11T01:55:45.201Z,12.77
2018-05-11T01:58:11.163Z,12.74
2018-05-11T02:00:37.138Z,12.74
2018-05-11T02:03:03.040Z,12.61
2018-05-11T02:05:29.010Z,12.59
2018-05-11T02:07:54.935Z,12.64
2018-05-11T02:10:20.876Z,12.64
2018-05-11T02:12:46.806Z,12.72
2018-05-11T02:15:12.724Z,12.71
2018-05-11T02:17:38.646Z,12.69
2018-05-11T02:20:04.537Z,12.73
2018-05-11T02:22:30.470Z,12.73
2018-05-11T02:24:56.398Z,12.65
2018-05-11T02:27:22.341Z,12.60
2018-05-11T02:29:48.260Z,12.56
2018-05-11T02:32:14.164Z,12.49
2018-05-11T02:34:40.125Z,12.46
2018-05-11T02:37:06.046Z,12.53
2018-05-11T02:39:31.983Z,12.56
2018-05-11T02:41:57.932Z,12.47
2018-05-11T02:44:23.866Z,12.52
2018-05-11T02:46:49.795Z,12.57
2018-05-11T02:49:15.724Z,12.59
2018-05-11T02:51:41.652Z,12.57
2018-05-11T02:54:07.604Z,12.53
2018-05-11T02:56:33.524Z,12.62
2018-05-11T02:58:59.447Z,12.56
2018-05-11T03:01:25.373Z,12.48
2018-05-11T03:03:51.276Z,12.51
2018-05-11T03:06:17.215Z,12.50
2018-05-11T03:08:58.059Z,12.47
2018-05-11T03:11:23.977Z,12.40
2018-05-11T03:13:49.899Z,12.37
2018-05-11T03:16:15.837Z,12.42
2018-05-11T03:18:41.761Z,12.32
2018-05-11T03:21:07.676Z,12.35
2018-05-11T03:23:33.713Z,12.40
2018-05-11T03:25:59.679Z,12.39
2018-05-11T03:28:25.593Z,12.43
2018-05-11T03:30:51.529Z,12.42
2018-05-11T03:33:17.457Z,12.46
2018-05-11T03:35:43.379Z,12.53
2018-05-11T03:38:09.309Z,12.49
2018-05-11T03:40:35.230Z,12.44
2018-05-11T03:43:01.176Z,12.45
2018-05-11T03:45:27.093Z,12.54
2018-05-11T03:47:53.020Z,12.54
2018-05-11T03:50:18.943Z,12.54
2018-05-11T03:52:44.915Z,12.49
2018-05-11T03:55:10.841Z,12.53
2018-05-11T03:57:36.769Z,12.46
2018-05-11T04:00:02.855Z,12.45
2018-05-11T04:02:41.020Z,12.41
2018-05-11T04:08:19.625Z,12.42
2018-05-11T04:10:45.546Z,12.52
2018-05-11T04:13:11.457Z,12.57
2018-05-11T04:15:37.472Z,12.45
2018-05-11T04:18:03.400Z,12.46
2018-05-11T04:20:29.348Z,12.46
2018-05-11T04:22:55.280Z,12.39
2018-05-11T04:25:21.191Z,12.38
2018-05-11T04:27:47.159Z,12.39
2018-05-11T04:30:13.168Z,12.38
2018-05-11T04:32:39.128Z,12.36
2018-05-11T04:35:05.043Z,12.34
2018-05-11T04:37:30.971Z,12.29
2018-05-11T04:39:56.897Z,12.33
2018-05-11T04:42:22.822Z,12.35
2018-05-11T04:44:48.742Z,12.40
2018-05-11T04:47:14.653Z,12.50
2018-05-11T04:49:40.579Z,12.50
2018-05-11T04:52:06.510Z,12.47
2018-05-11T04:54:32.455Z,12.55
2018-05-11T04:56:58.378Z,12.39
2018-05-11T04:59:24.328Z,12.46
2018-05-11T05:01:50.250Z,12.37
2018-05-11T05:04:16.206Z,12.42
2018-05-11T05:06:42.127Z,12.50
2018-05-11T05:09:08.051Z,12.47
2018-05-11T05:11:33.989Z,12.59
2018-05-11T05:13:59.900Z,12.61
2018-05-11T05:16:25.814Z,12.53
2018-05-11T05:18:51.734Z,12.32
2018-05-11T05:21:17.692Z,12.37
2018-05-11T05:23:43.630Z,12.39
2018-05-11T05:26:09.560Z,12.41
2018-05-11T05:28:35.468Z,12.43
2018-05-11T05:31:01.403Z,12.46
2018-05-11T05:33:27.366Z,12.56
2018-05-11T05:35:53.316Z,12.57
2018-05-11T05:38:19.259Z,12.71
2018-05-11T05:40:45.192Z,12.82
2018-05-11T05:43:11.228Z,12.89
2018-05-11T05:45:37.170Z,12.67
2018-05-11T05:48:03.112Z,12.71
2018-05-11T05:50:29.006Z,12.79
2018-05-11T05:52:54.923Z,12.81
2018-05-11T05:55:20.848Z,12.87
2018-05-11T05:57:46.776Z,12.89
2018-05-11T06:00:12.739Z,12.92
2018-05-11T06:02:38.674Z,12.93
2018-05-11T06:05:04.623Z,12.91
2018-05-11T06:07:30.573Z,13.01
2018-05-11T06:09:56.523Z,13.02
2018-05-11T06:12:22.487Z,13.03
2018-05-11T06:14:48.422Z,12.98
2018-05-11T06:17:14.343Z,12.96
2018-05-11T06:19:40.267Z,12.93
2018-05-11T06:22:06.311Z,12.95
2018-05-11T06:24:32.157Z,13.06
2018-05-11T06:26:58.087Z,13.15
2018-05-11T06:29:24.012Z,13.10
2018-05-11T06:31:49.943Z,13.07
2018-05-11T06:34:15.849Z,13.16
2018-05-11T06:36:41.788Z,13.20
2018-05-11T06:39:07.755Z,13.18
2018-05-11T06:41:33.684Z,13.28
2018-05-11T06:43:59.635Z,13.35
2018-05-11T06:46:25.570Z,13.43
2018-05-11T06:48:52.038Z,13.45
2018-05-11T06:51:17.959Z,13.55
2018-05-11T06:53:43.945Z,13.60
2018-05-11T06:56:09.959Z,13.58
2018-05-11T06:58:35.903Z,13.66
2018-05-11T07:01:01.843Z,13.55
2018-05-11T07:03:27.743Z,13.83
2018-05-11T07:05:53.689Z,13.73
2018-05-11T07:08:19.629Z,13.78
2018-05-11T07:10:45.559Z,13.86
2018-05-11T07:13:11.475Z,13.85
2018-05-11T07:15:37.407Z,13.84
2018-05-11T07:18:03.341Z,13.80
2018-05-11T07:20:29.285Z,13.85
2018-05-11T07:22:55.212Z,13.91
2018-05-11T07:25:21.148Z,14.12
2018-05-11T07:27:47.075Z,14.12
2018-05-11T07:30:13.000Z,14.21
2018-05-11T07:32:39.003Z,14.09
2018-05-11T07:35:05.011Z,14.21
2018-05-11T07:37:30.887Z,14.25
2018-05-11T07:39:56.835Z,14.29
2018-05-11T07:42:22.752Z,14.24
2018-05-11T07:44:48.713Z,14.19
2018-05-11T07:47:14.632Z,14.22
2018-05-11T07:49:40.594Z,14.09
2018-05-11T07:52:06.513Z,14.23
2018-05-11T07:54:32.432Z,14.07
2018-05-11T07:56:58.382Z,14.09
2018-05-11T07:59:24.298Z,14.15
2018-05-11T08:01:50.253Z,14.08
2018-05-11T08:04:16.171Z,14.17
2018-05-11T08:06:42.090Z,14.17
2018-05-11T08:09:08.039Z,14.19
2018-05-11T08:11:33.961Z,14.25
2018-05-11T08:13:59.915Z,14.36
2018-05-11T08:16:25.835Z,14.36
2018-05-11T08:18:51.785Z,14.47
2018-05-11T08:21:17.721Z,14.31
2018-05-11T08:23:43.732Z,14.30
2018-05-11T08:26:09.608Z,14.39
2018-05-11T08:28:35.515Z,14.55
2018-05-11T08:31:01.466Z,14.69
2018-05-11T08:33:27.413Z,14.74
2018-05-11T08:35:53.416Z,14.78
2018-05-11T08:38:19.321Z,14.94
2018-05-11T08:40:45.240Z,15.08
2018-05-11T08:43:11.168Z,15.15
2018-05-11T08:45:37.113Z,15.23
2018-05-11T08:48:03.077Z,15.37
2018-05-11T08:50:29.229Z,15.25
2018-05-11T08:52:55.152Z,15.22
2018-05-11T08:55:21.060Z,15.07
2018-05-11T08:57:46.988Z,15.17
2018-05-11T09:00:12.966Z,15.58
2018-05-11T09:02:38.878Z,15.67
2018-05-11T09:05:04.776Z,15.82
2018-05-11T09:07:30.720Z,15.94
2018-05-11T09:09:56.649Z,16.07
2018-05-11T09:12:22.580Z,15.97
2018-05-11T09:14:48.512Z,15.91
2018-05-11T09:17:14.454Z,15.75
2018-05-11T09:19:40.380Z,15.74
2018-05-11T09:22:06.302Z,15.72
2018-05-11T09:24:32.252Z,15.65
2018-05-11T09:26:58.192Z,15.71
2018-05-11T09:29:24.116Z,15.84
2018-05-11T09:31:50.116Z,15.97
2018-05-11T09:34:15.982Z,16.08
2018-05-11T09:36:41.905Z,16.29
2018-05-11T09:39:07.842Z,16.41
2018-05-11T09:41:33.782Z,16.43
2018-05-11T09:43:59.720Z,16.32
2018-05-11T09:46:25.639Z,16.25
2018-05-11T09:48:51.596Z,16.24
2018-05-11T09:51:17.506Z,16.33
2018-05-11T09:53:43.453Z,16.28
2018-05-11T09:56:09.361Z,16.31
2018-05-11T09:58:35.302Z,16.33
2018-05-11T10:01:01.239Z,16.42
2018-05-11T10:03:27.175Z,16.44
2018-05-11T10:05:53.190Z,16.57
2018-05-11T10:08:19.118Z,16.70
2018-05-11T10:10:45.050Z,16.95
2018-05-11T10:13:10.935Z,17.19
2018-05-11T10:15:36.855Z,17.27
2018-05-11T10:18:02.795Z,17.46
2018-05-11T10:20:28.729Z,17.63
2018-05-11T10:22:54.667Z,17.72
2018-05-11T10:25:20.611Z,17.56
2018-05-11T10:27:46.540Z,17.53
2018-05-11T10:30:12.478Z,17.46
2018-05-11T10:32:38.412Z,17.37
2018-05-11T10:35:04.338Z,17.41
2018-05-11T10:37:30.251Z,17.62
2018-05-11T10:39:56.260Z,17.87
2018-05-11T10:42:22.182Z,17.72
2018-05-11T10:44:48.109Z,17.91
2018-05-11T10:47:14.052Z,17.77
2018-05-11T10:49:40.007Z,17.71
2018-05-11T10:52:05.964Z,17.64
2018-05-11T10:54:31.895Z,17.80
2018-05-11T10:56:57.873Z,18.09
2018-05-11T10:59:23.844Z,18.31
2018-05-11T11:01:49.791Z,18.35
2018-05-11T11:04:15.733Z,18.47
2018-05-11T11:06:41.649Z,18.27
2018-05-11T11:09:07.597Z,18.37
2018-05-11T11:11:33.528Z,18.45
2018-05-11T11:13:59.460Z,18.40
2018-05-11T11:16:25.368Z,18.27
2018-05-11T11:18:51.353Z,18.23
2018-05-11T11:21:17.269Z,18.26
2018-05-11T11:23:43.201Z,18.41
2018-05-11T11:26:09.136Z,18.37
2018-05-11T11:28:35.088Z,18.23
2018-05-11T11:31:01.048Z,18.34
2018-05-11T11:33:26.972Z,18.42
2018-05-11T11:35:52.905Z,18.52
2018-05-11T11:38:18.831Z,18.40
2018-05-11T11:40:44.823Z,18.48
2018-05-11T11:43:10.751Z,18.31
2018-05-11T11:45:36.679Z,18.40
2018-05-11T11:48:02.611Z,18.44
2018-05-11T11:50:28.527Z,18.51
2018-05-11T11:52:54.490Z,18.54
2018-05-11T11:55:20.441Z,18.82
2018-05-11T11:57:46.391Z,18.95
2018-05-11T12:00:12.345Z,18.92
2018-05-11T12:02:38.275Z,18.92
2018-05-11T12:05:04.222Z,18.90
2018-05-11T12:07:30.173Z,18.76
2018-05-11T12:09:56.114Z,18.99
2018-05-11T12:12:22.064Z,18.91
2018-05-11T12:14:47.987Z,18.97
2018-05-11T12:17:13.912Z,18.99
2018-05-11T12:19:39.835Z,19.05
2018-05-11T12:22:05.776Z,19.00
2018-05-11T12:24:31.728Z,18.98
2018-05-11T12:26:57.658Z,18.86
2018-05-11T12:29:23.603Z,18.85
2018-05-11T12:31:49.530Z,18.74
2018-05-11T12:34:15.443Z,18.74
2018-05-11T12:36:41.400Z,18.66
2018-05-11T12:39:07.316Z,18.71
2018-05-11T12:41:33.288Z,18.75
2018-05-11T12:43:59.231Z,18.78
2018-05-11T12:46:25.158Z,18.97
2018-05-11T12:48:51.088Z,18.95
2018-05-11T12:51:17.034Z,18.84
2018-05-11T12:53:42.974Z,18.96
2018-05-11T12:56:08.906Z,19.16
2018-05-11T12:58:34.840Z,19.23
2018-05-11T13:01:00.750Z,19.27
2018-05-11T13:03:26.704Z,19.30
2018-05-11T13:05:52.623Z,19.41
2018-05-11T13:08:18.564Z,19.63
2018-05-11T13:10:44.513Z,19.66
2018-05-11T13:13:10.442Z,19.61
2018-05-11T13:15:36.400Z,19.60
2018-05-11T13:18:02.397Z,19.50
2018-05-11T13:20:28.301Z,19.53
2018-05-11T13:22:54.240Z,19.42
2018-05-11T13:25:20.170Z,19.26
2018-05-11T13:27:46.083Z,19.12
2018-05-11T13:30:13.114Z,19.16
2018-05-11T13:32:39.057Z,18.91
2018-05-11T13:35:05.037Z,19.16
2018-05-11T13:37:30.976Z,19.78
2018-05-11T13:39:56.893Z,20.84
2018-05-11T13:42:22.807Z,21.33
2018-05-11T13:44:48.729Z,22.11
2018-05-11T13:47:14.669Z,22.20
2018-05-11T13:49:40.600Z,22.56
2018-05-11T13:52:06.575Z,22.74
2018-05-11T13:54:32.507Z,22.82
2018-05-11T13:56:58.452Z,23.05
2018-05-11T13:59:24.391Z,22.47
2018-05-11T14:01:50.336Z,22.18
2018-05-11T14:04:16.254Z,21.91
2018-05-11T14:06:42.220Z,21.74
2018-05-11T14:09:08.191Z,21.66
2018-05-11T14:11:34.153Z,21.49
2018-05-11T14:14:00.100Z,21.30
2018-05-11T14:16:26.022Z,21.59
2018-05-11T14:18:51.969Z,21.50
2018-05-11T14:21:17.894Z,21.32
2018-05-11T14:23:43.823Z,21.42
2018-05-11T14:26:09.767Z,21.75
2018-05-11T14:28:35.729Z,21.79
2018-05-11T14:31:01.712Z,22.36
2018-05-11T14:33:27.609Z,22.51
2018-05-11T14:35:53.555Z,22.04
2018-05-11T14:38:19.497Z,21.53
2018-05-11T14:40:45.417Z,21.17
2018-05-11T14:43:11.348Z,20.81
2018-05-11T14:45:37.292Z,20.61
2018-05-11T14:48:03.218Z,20.67
2018-05-11T14:50:29.176Z,20.39
2018-05-11T14:52:55.115Z,20.48
2018-05-11T14:55:21.005Z,20.56
2018-05-11T14:57:46.950Z,20.63
2018-05-11T15:00:12.875Z,20.62
2018-05-11T15:02:38.833Z,20.63
2018-05-11T15:05:04.729Z,20.56
2018-05-11T15:07:30.662Z,20.47
2018-05-11T15:09:56.624Z,20.12
2018-05-11T15:12:22.546Z,20.10
2018-05-11T15:14:48.500Z,20.11
2018-05-11T15:17:14.424Z,19.92
2018-05-11T15:19:40.361Z,19.75
2018-05-11T15:22:06.390Z,19.72
2018-05-11T15:24:32.260Z,19.74
2018-05-11T15:26:58.172Z,19.58
2018-05-11T15:29:24.114Z,19.81
2018-05-11T15:31:50.020Z,19.95
2018-05-11T15:34:15.952Z,20.00
2018-05-11T15:36:41.904Z,20.03
2018-05-11T15:39:07.818Z,19.97
2018-05-11T15:41:33.769Z,19.97
2018-05-11T15:43:59.703Z,19.97
2018-05-11T15:46:25.664Z,19.95
2018-05-11T15:48:51.584Z,20.00
2018-05-11T15:51:17.506Z,19.99
2018-05-11T15:53:43.426Z,19.74
2018-05-11T15:56:09.334Z,19.68
2018-05-11T15:58:35.255Z,19.58
2018-05-11T16:01:04.978Z,19.67
2018-05-11T16:03:30.926Z,19.54
2018-05-11T16:05:56.948Z,19.39
2018-05-11T16:08:22.927Z,19.51
2018-05-11T16:10:48.854Z,19.58
2018-05-11T16:13:14.804Z,19.61
2018-05-11T16:15:40.769Z,19.53
2018-05-11T16:18:06.706Z,19.40
2018-05-11T16:20:32.759Z,19.45
2018-05-11T16:22:58.593Z,19.38
2018-05-11T16:25:24.527Z,19.36
2018-05-11T16:27:50.464Z,19.25
2018-05-11T16:30:16.375Z,19.40
2018-05-11T16:32:42.285Z,19.48
2018-05-11T16:35:08.247Z,19.53
2018-05-11T16:37:34.167Z,19.53
2018-05-11T16:40:00.131Z,19.54
2018-05-11T16:42:26.078Z,19.40
2018-05-11T16:44:52.007Z,19.41
2018-05-11T16:47:17.968Z,19.37
2018-05-11T16:49:43.893Z,19.29
2018-05-11T16:52:09.855Z,19.34
2018-05-11T16:54:35.782Z,19.32
2018-05-11T16:57:01.746Z,19.32
2018-05-11T16:59:27.668Z,19.43
2018-05-11T17:01:53.607Z,19.38
2018-05-11T17:04:19.535Z,19.28
2018-05-11T17:06:45.473Z,19.33
2018-05-11T17:09:11.445Z,19.28
2018-05-11T17:11:37.385Z,19.23
2018-05-11T17:14:03.333Z,19.17
2018-05-11T17:16:29.308Z,19.14
2018-05-11T17:18:55.220Z,19.12
2018-05-11T17:21:21.146Z,19.13
2018-05-11T17:23:47.057Z,19.18
2018-05-11T17:26:13.014Z,19.04
2018-05-11T17:28:38.958Z,19.02
2018-05-11T17:31:04.890Z,19.03
2018-05-11T17:33:30.830Z,18.94
2018-05-11T17:35:56.785Z,18.95
2018-05-11T17:38:22.716Z,18.95
2018-05-11T17:40:48.648Z,18.88
2018-05-11T17:43:14.573Z,18.86
2018-05-11T17:45:40.509Z,18.83
2018-05-11T17:48:06.435Z,18.77
2018-05-11T17:50:32.421Z,18.66
2018-05-11T17:52:58.370Z,18.66
2018-05-11T17:55:24.358Z,18.67
2018-05-11T17:57:50.298Z,18.66
2018-05-11T18:00:16.283Z,18.62
2018-05-11T18:02:42.263Z,18.53
2018-05-11T18:05:08.231Z,18.53
2018-05-11T18:07:34.152Z,18.53
2018-05-11T18:10:00.151Z,18.51
2018-05-11T18:12:26.157Z,18.45
2018-05-11T18:14:52.044Z,18.41
2018-05-11T18:17:18.052Z,18.40
2018-05-11T18:19:45.684Z,18.34
2018-05-11T18:22:11.620Z,18.27
2018-05-11T18:24:37.562Z,18.16
2018-05-11T18:27:03.544Z,18.09
2018-05-11T18:29:29.502Z,18.03
2018-05-11T18:31:55.450Z,18.05
2018-05-11T18:34:21.407Z,17.97
2018-05-11T18:36:47.366Z,17.92
2018-05-11T18:39:13.275Z,17.90
2018-05-11T18:41:39.312Z,17.83
2018-05-11T18:44:05.254Z,17.77
2018-05-11T18:46:31.222Z,17.72
2018-05-11T18:48:57.216Z,17.63
2018-05-11T18:51:23.191Z,17.62
2018-05-11T18:53:49.488Z,17.58
2018-05-11T18:56:15.230Z,17.51
2018-05-11T18:58:41.197Z,17.49
2018-05-11T19:01:07.700Z,17.42
2018-05-11T19:03:33.690Z,17.41
2018-05-11T19:05:59.681Z,17.35
2018-05-11T19:08:25.683Z,17.31
2018-05-11T19:10:51.653Z,17.26
2018-05-11T19:13:18.483Z,17.21
2018-05-11T19:15:44.523Z,17.17
2018-05-11T19:18:10.495Z,17.14
2018-05-11T19:20:36.481Z,17.12
2018-05-11T19:23:02.459Z,17.08
2018-05-11T19:25:28.449Z,17.04
2018-05-11T19:27:54.788Z,17.01
2018-05-11T19:30:20.899Z,16.96
2018-05-11T19:32:46.836Z,16.93
2018-05-11T19:35:12.817Z,16.86
2018-05-11T19:37:39.617Z,16.87
2018-05-11T19:40:05.586Z,16.79
2018-05-11T19:42:32.577Z,16.78
2018-05-11T19:44:58.552Z,16.75
2018-05-11T19:47:24.520Z,16.77
2018-05-11T19:49:50.535Z,16.72
2018-05-11T19:52:16.654Z,16.70
2018-05-11T19:54:42.630Z,16.64
2018-05-11T19:57:10.389Z,16.55
2018-05-11T19:59:36.248Z,16.60
2018-05-11T20:02:02.230Z,16.61
2018-05-11T20:04:28.260Z,16.61
2018-05-11T20:06:54.229Z,16.55
2018-05-11T20:09:20.247Z,16.52
2018-05-11T20:11:46.222Z,16.51
2018-05-11T20:14:12.286Z,16.49
2018-05-11T20:16:38.223Z,16.35
2018-05-11T20:19:04.248Z,16.33
2018-05-11T20:21:30.252Z,16.28
2018-05-11T20:23:56.271Z,16.18
2018-05-11T20:26:22.206Z,16.12
2018-05-11T20:28:48.202Z,16.11
2018-05-11T20:31:14.155Z,16.02
2018-05-11T20:33:40.096Z,15.99
2018-05-11T20:36:06.066Z,15.91
2018-05-11T20:38:32.055Z,15.82
2018-05-11T20:40:58.023Z,15.77
2018-05-11T20:43:23.971Z,15.75
2018-05-11T20:45:49.925Z,15.66
2018-05-11T20:48:16.853Z,15.68
2018-05-11T20:50:42.811Z,15.62
2018-05-11T20:53:08.763Z,15.54
2018-05-11T20:55:34.689Z,15.49
2018-05-11T20:58:00.633Z,15.41
2018-05-11T21:00:26.718Z,15.36
2018-05-11T21:02:52.691Z,15.34
2018-05-11T21:05:18.687Z,15.34
2018-05-11T21:07:44.681Z,15.38
2018-05-11T21:10:10.660Z,15.37
2018-05-11T21:12:36.606Z,15.33
2018-05-11T21:15:02.572Z,15.31
2018-05-11T21:17:28.554Z,15.34
2018-05-11T21:19:54.500Z,15.35
2018-05-11T21:22:20.480Z,15.31
2018-05-11T21:24:46.430Z,15.29
2018-05-11T21:27:12.440Z,15.33
2018-05-11T21:29:38.428Z,15.30
2018-05-11T21:32:04.409Z,15.19
2018-05-11T21:34:30.391Z,15.17
2018-05-11T21:36:56.350Z,15.07
2018-05-11T21:39:22.275Z,15.07
2018-05-11T21:41:48.225Z,15.03
2018-05-11T21:44:14.185Z,14.97
2018-05-11T21:46:40.092Z,14.85
2018-05-11T21:49:06.102Z,14.83
2018-05-11T21:51:32.052Z,14.81
2018-05-11T21:53:58.054Z,14.78
2018-05-11T21:56:23.961Z,14.75
2018-05-11T21:58:49.902Z,14.76
2018-05-11T22:01:15.895Z,14.77
2018-05-11T22:03:41.840Z,14.70
2018-05-11T22:06:07.774Z,14.74
2018-05-11T22:08:33.698Z,14.76
2018-05-11T22:10:59.638Z,14.74
2018-05-11T22:13:25.641Z,14.70
2018-05-11T22:15:51.532Z,14.64
2018-05-11T22:18:17.463Z,14.60
2018-05-11T22:20:43.393Z,14.59
2018-05-11T22:23:09.307Z,14.54
2018-05-11T22:25:35.224Z,14.56
2018-05-11T22:28:01.207Z,14.61
2018-05-11T22:30:27.151Z,14.60
2018-05-11T22:32:53.078Z,14.60
2018-05-11T22:35:19.008Z,14.64
2018-05-11T22:37:44.935Z,14.65
2018-05-11T22:40:10.847Z,14.65
2018-05-11T22:42:36.803Z,14.64
2018-05-11T22:45:02.705Z,14.68
2018-05-11T22:47:28.625Z,14.50
2018-05-11T22:49:54.571Z,14.51
2018-05-11T22:52:20.468Z,14.54
2018-05-11T22:54:46.403Z,14.59
2018-05-11T22:57:12.323Z,14.71
2018-05-11T22:59:38.265Z,14.83
2018-05-11T23:02:04.193Z,14.88
2018-05-11T23:04:30.145Z,14.92
2018-05-11T23:06:56.076Z,14.95
2018-05-11T23:09:22.015Z,15.03
2018-05-11T23:11:47.952Z,14.92
2018-05-11T23:14:13.869Z,14.98
2018-05-11T23:16:39.832Z,15.07
2018-05-11T23:19:05.774Z,15.11
2018-05-11T23:21:31.716Z,15.18
2018-05-11T23:23:57.641Z,15.22
2018-05-11T23:26:23.592Z,15.25
2018-05-11T23:28:49.534Z,15.21
2018-05-11T23:31:15.482Z,15.18
2018-05-11T23:33:41.407Z,15.22
2018-05-11T23:36:07.341Z,15.27
2018-05-11T23:38:33.244Z,15.28
2018-05-11T23:40:59.201Z,15.24
2018-05-11T23:43:25.103Z,15.28
2018-05-11T23:45:51.022Z,15.29
2018-05-11T23:48:16.957Z,15.28
2018-05-11T23:50:42.883Z,15.32
2018-05-11T23:53:08.809Z,15.30
2018-05-11T23:55:34.728Z,15.27
2018-05-11T23:58:00.643Z,15.24
